Time;durP1;ratioP1;P1;durP2;ratioP2;P2;SDS_P1;SDS_P2;PMS_P1;PMS_P2;Temp;Humidity;BMP_temperature;BMP_pressure;BME280_temperature;BME280_humidity;BME280_pressure;Samples;Min_cycle;Max_cycle;Signal;HPM_P1;HPM_P2
2020/12/01 00:00:36;;;;;;;8.52;3.80;;;25.30;65.20;;;;;;5115171;28;20027;-59
2020/12/01 00:03:03;;;;;;;8.80;4.30;;;25.20;65.70;;;;;;5115238;28;20342;-57
2020/12/01 00:05:31;;;;;;;15.13;4.00;;;25.30;65.30;;;;;;5114850;28;20024;-57
2020/12/01 00:07:59;;;;;;;11.45;4.35;;;25.40;65.80;;;;;;5096600;28;20119;-60
2020/12/01 00:10:28;;;;;;;11.57;3.75;;;25.40;64.80;;;;;;5097159;28;20031;-62
2020/12/01 00:12:55;;;;;;;15.50;4.05;;;25.40;65.60;;;;;;5114805;28;20190;-60
2020/12/01 00:15:23;;;;;;;11.55;4.00;;;25.50;65.40;;;;;;5114444;28;20426;-60
2020/12/01 00:17:51;;;;;;;8.00;3.58;;;25.50;65.80;;;;;;5114247;28;20096;-60
2020/12/01 00:20:20;;;;;;;10.10;4.25;;;25.50;64.40;;;;;;5115058;28;20031;-61
2020/12/01 00:22:48;;;;;;;10.32;4.03;;;25.60;65.30;;;;;;5114950;28;20020;-60
2020/12/01 00:25:17;;;;;;;7.63;3.97;;;25.60;64.60;;;;;;5115479;28;20051;-61
2020/12/01 00:27:44;;;;;;;12.43;4.05;;;25.60;65.20;;;;;;5114520;28;20032;-60
2020/12/01 00:30:18;;;;;;;7.80;3.85;;;25.60;64.80;;;;;;5114789;28;20020;-58
2020/12/01 00:32:46;;;;;;;14.30;3.63;;;25.60;65.40;;;;;;5111655;27;20080;-55
2020/12/01 00:35:17;;;;;;;14.70;3.33;;;25.70;65.30;;;;;;5094318;28;20034;-60
2020/12/01 00:37:44;;;;;;;9.82;3.72;;;25.70;65.20;;;;;;5094669;28;20373;-58
2020/12/01 00:40:13;;;;;;;11.18;3.95;;;25.70;64.80;;;;;;5114788;28;20027;-62
2020/12/01 00:42:40;;;;;;;9.25;3.53;;;25.70;64.60;;;;;;5096297;28;20028;-62
2020/12/01 00:45:09;;;;;;;10.65;3.88;;;25.70;64.90;;;;;;5114712;28;20076;-62
2020/12/01 00:47:37;;;;;;;11.80;3.75;;;25.70;65.30;;;;;;5114433;28;20032;-60
2020/12/01 00:50:11;;;;;;;12.68;3.70;;;25.80;65.20;;;;;;5095866;28;20537;-57
2020/12/01 00:52:39;;;;;;;12.63;3.10;;;25.90;65.20;;;;;;5114741;28;20024;-59
2020/12/01 00:55:07;;;;;;;9.68;3.85;;;25.90;64.70;;;;;;5114126;28;20034;-57
2020/12/01 00:57:35;;;;;;;9.52;3.58;;;25.90;64.30;;;;;;5114148;28;20062;-59
2020/12/01 01:00:09;;;;;;;9.57;3.53;;;25.90;64.70;;;;;;5095556;28;20050;-58
2020/12/01 01:02:39;;;;;;;11.20;4.13;;;26.00;64.90;;;;;;5114547;28;20016;-59
2020/12/01 01:05:07;;;;;;;10.68;5.55;;;26.00;64.90;;;;;;5114327;28;20358;-56
2020/12/01 01:07:34;;;;;;;11.10;3.90;;;26.00;64.80;;;;;;5096080;28;20035;-53
2020/12/01 01:10:02;;;;;;;11.13;3.80;;;26.00;64.50;;;;;;5114104;28;20023;-59
2020/12/01 01:12:29;;;;;;;14.75;5.13;;;26.00;65.10;;;;;;5114094;28;20031;-53
2020/12/01 01:14:57;;;;;;;12.55;4.93;;;26.00;65.00;;;;;;5095500;28;20051;-58
2020/12/01 01:17:24;;;;;;;11.85;4.18;;;26.10;64.50;;;;;;5113902;28;20097;-60
2020/12/01 01:19:51;;;;;;;11.90;3.92;;;26.10;64.50;;;;;;5114123;28;20399;-58
2020/12/01 01:22:19;;;;;;;10.10;3.65;;;26.10;64.50;;;;;;5114135;28;20023;-56
2020/12/01 01:24:46;;;;;;;16.45;4.15;;;26.20;64.90;;;;;;5114221;28;20055;-58
2020/12/01 01:27:13;;;;;;;9.80;3.22;;;26.20;64.20;;;;;;5113811;28;20511;-58
2020/12/01 01:29:41;;;;;;;10.95;3.58;;;26.30;65.00;;;;;;5113596;28;20466;-53
2020/12/01 01:32:08;;;;;;;9.80;4.25;;;26.30;64.40;;;;;;5113656;28;20023;-61
2020/12/01 01:34:35;;;;;;;12.00;3.42;;;26.30;64.10;;;;;;5113535;28;20020;-60
2020/12/01 01:37:04;;;;;;;9.27;3.70;;;26.30;64.70;;;;;;5113706;28;20040;-61
2020/12/01 01:39:32;;;;;;;14.80;5.03;;;26.40;64.30;;;;;;5113847;28;20030;-60
2020/12/01 01:42:00;;;;;;;11.38;4.10;;;26.40;64.60;;;;;;5094400;28;20078;-56
2020/12/01 01:44:31;;;;;;;14.43;4.60;;;26.40;64.50;;;;;;5113148;28;20023;-59
2020/12/01 01:47:28;;;;;;;11.85;4.05;;;26.50;64.10;;;;;;5113955;28;20456;-58
2020/12/01 01:50:15;;;;;;;8.88;4.28;;;26.50;64.00;;;;;;5111874;28;20035;-59
2020/12/01 01:52:48;;;;;;;11.80;4.55;;;26.50;64.20;;;;;;5112982;28;20043;-53
2020/12/01 01:55:20;;;;;;;13.23;4.05;;;26.50;65.20;;;;;;5113221;28;20027;-61
2020/12/01 01:57:53;;;;;;;10.10;3.30;;;26.70;64.40;;;;;;5112782;28;20034;-61
2020/12/01 02:00:56;;;;;;;13.63;4.47;;;26.70;63.90;;;;;;5085175;28;20046;-56
2020/12/01 02:03:40;;;;;;;10.57;4.00;;;26.70;64.50;;;;;;5098603;28;20503;-56
2020/12/01 02:06:17;;;;;;;12.70;3.97;;;26.70;64.30;;;;;;5088441;28;20177;-56
2020/12/01 02:09:00;;;;;;;10.38;4.20;;;26.70;64.20;;;;;;5110018;28;20103;-62
2020/12/01 02:11:30;;;;;;;13.13;4.32;;;26.80;64.10;;;;;;5109605;28;20035;-60
2020/12/01 02:14:35;;;;;;;13.77;4.05;;;26.80;64.20;;;;;;5109654;28;20019;-56
2020/12/01 02:17:27;;;;;;;10.75;4.07;;;26.90;64.10;;;;;;5106203;28;20092;-56
2020/12/01 02:20:09;;;;;;;13.50;4.40;;;26.90;63.60;;;;;;5108089;28;20042;-56
2020/12/01 02:22:37;;;;;;;11.00;4.00;;;26.90;63.40;;;;;;5107954;28;20027;-62
2020/12/01 02:25:08;;;;;;;15.30;4.82;;;26.90;63.90;;;;;;5087472;28;20080;-52
2020/12/01 02:27:35;;;;;;;11.07;3.60;;;27.00;64.00;;;;;;5109054;28;20047;-56
2020/12/01 02:30:04;;;;;;;13.50;4.32;;;27.10;63.30;;;;;;5110099;28;21067;-56
2020/12/01 02:32:31;;;;;;;10.85;3.53;;;27.10;63.40;;;;;;5110187;28;20102;-49
2020/12/01 02:35:00;;;;;;;9.75;3.50;;;27.00;63.40;;;;;;5105867;28;20118;-50
2020/12/01 02:37:29;;;;;;;9.75;3.80;;;27.00;63.90;;;;;;5108655;28;20027;-57
2020/12/01 02:40:01;;;;;;;10.43;4.07;;;27.10;63.70;;;;;;5109950;28;20059;-55
2020/12/01 02:42:33;;;;;;;13.88;3.88;;;27.10;63.50;;;;;;5109529;28;20066;-56
2020/12/01 02:45:01;;;;;;;10.98;4.28;;;27.10;63.90;;;;;;5070268;28;20050;-58
2020/12/01 02:47:28;;;;;;;15.50;4.35;;;27.10;64.00;;;;;;5109921;28;20077;-59
2020/12/01 02:49:56;;;;;;;10.45;3.92;;;27.20;63.50;;;;;;5109169;28;20059;-63
2020/12/01 02:52:24;;;;;;;13.27;4.53;;;27.20;64.00;;;;;;5108599;28;20103;-52
2020/12/01 02:54:51;;;;;;;12.07;4.90;;;27.20;63.40;;;;;;5107347;27;20500;-63
2020/12/01 02:57:19;;;;;;;15.05;3.90;;;27.30;63.80;;;;;;5108667;28;20570;-64
2020/12/01 02:59:47;;;;;;;11.23;3.80;;;27.30;63.30;;;;;;5107156;28;20050;-58
2020/12/01 03:02:14;;;;;;;12.13;4.65;;;27.30;63.80;;;;;;5108590;28;20084;-58
2020/12/01 03:04:42;;;;;;;12.80;4.70;;;27.30;64.00;;;;;;5108835;28;20027;-59
2020/12/01 03:07:09;;;;;;;10.07;3.95;;;27.40;63.80;;;;;;5107050;28;20030;-59
2020/12/01 03:09:36;;;;;;;11.70;4.68;;;27.50;63.70;;;;;;5108312;28;20024;-55
2020/12/01 03:12:04;;;;;;;13.00;4.15;;;27.40;63.50;;;;;;5108691;28;20042;-61
2020/12/01 03:14:31;;;;;;;12.75;4.38;;;27.40;63.60;;;;;;5108725;28;20076;-61
2020/12/01 03:16:59;;;;;;;13.38;4.43;;;27.40;63.80;;;;;;5104121;28;20047;-59
2020/12/01 03:19:26;;;;;;;12.23;4.82;;;27.40;64.20;;;;;;5108304;28;20034;-59
2020/12/01 03:21:53;;;;;;;13.30;4.60;;;27.50;63.90;;;;;;5109634;28;20720;-60
2020/12/01 03:24:21;;;;;;;11.57;4.18;;;27.50;64.20;;;;;;5110411;28;20106;-60
2020/12/01 03:26:48;;;;;;;13.13;4.68;;;27.50;63.90;;;;;;5109495;28;20422;-64
2020/12/01 03:29:16;;;;;;;16.55;4.60;;;27.50;64.00;;;;;;5111387;28;20377;-61
2020/12/01 03:31:43;;;;;;;12.63;4.45;;;27.40;64.10;;;;;;5111382;28;20419;-61
2020/12/01 03:34:12;;;;;;;16.02;5.22;;;27.50;64.30;;;;;;5111738;28;20023;-57
2020/12/01 03:36:39;;;;;;;13.02;4.32;;;27.40;64.00;;;;;;5111019;28;20106;-59
2020/12/01 03:39:07;;;;;;;17.20;5.35;;;27.40;64.60;;;;;;5110965;28;20088;-59
2020/12/01 03:41:34;;;;;;;16.85;4.90;;;27.30;64.80;;;;;;5111203;28;20027;-59
2020/12/01 03:44:02;;;;;;;12.68;4.57;;;27.30;64.80;;;;;;5111381;28;20031;-58
2020/12/01 03:46:29;;;;;;;19.77;6.20;;;27.40;64.60;;;;;;5111284;28;20034;-71
2020/12/01 03:49:00;;;;;;;12.20;5.40;;;27.40;64.80;;;;;;5110449;28;20033;-58
2020/12/01 03:51:28;;;;;;;13.55;4.78;;;27.40;64.80;;;;;;5111233;28;20104;-60
2020/12/01 03:53:55;;;;;;;13.43;4.90;;;27.40;65.20;;;;;;5111400;28;20019;-57
2020/12/01 03:56:23;;;;;;;15.07;5.18;;;27.30;64.40;;;;;;5111577;28;20126;-62
2020/12/01 03:58:50;;;;;;;18.20;6.00;;;27.30;64.90;;;;;;5111280;28;20127;-61
2020/12/01 04:01:17;;;;;;;12.25;4.82;;;27.30;65.50;;;;;;5111152;28;20024;-61
2020/12/01 04:03:45;;;;;;;10.93;4.40;;;27.30;65.20;;;;;;5110983;28;20496;-64
2020/12/01 04:06:12;;;;;;;28.67;8.65;;;27.30;64.80;;;;;;5112021;28;20031;-60
2020/12/01 04:08:40;;;;;;;28.00;8.23;;;27.70;66.90;;;;;;5101740;28;20039;-62
2020/12/01 04:11:07;;;;;;;37.65;12.73;;;26.90;68.80;;;;;;5109299;28;20504;-60
2020/12/01 04:13:34;;;;;;;25.00;8.63;;;26.70;69.30;;;;;;5105432;28;20120;-60
2020/12/01 04:16:03;;;;;;;33.67;10.07;;;27.20;68.40;;;;;;5110579;28;20094;-55
2020/12/01 04:18:30;;;;;;;31.00;10.20;;;27.20;68.00;;;;;;5107977;28;20485;-58
2020/12/01 04:20:57;;;;;;;33.35;10.70;;;27.10;68.70;;;;;;5108261;28;20028;-55
2020/12/01 04:23:25;;;;;;;37.20;11.55;;;27.20;68.00;;;;;;5103442;28;20157;-53
2020/12/01 04:25:52;;;;;;;29.55;10.80;;;27.10;68.40;;;;;;5110615;28;20031;-63
2020/12/01 04:28:19;;;;;;;41.67;13.40;;;27.10;68.20;;;;;;5111414;27;20023;-65
2020/12/01 04:30:47;;;;;;;28.92;13.80;;;27.40;67.80;;;;;;5112277;28;20046;-60
2020/12/01 04:33:14;;;;;;;32.47;11.00;;;27.30;67.20;;;;;;5107935;28;20023;-65
2020/12/01 04:35:42;;;;;;;32.80;14.00;;;27.20;68.20;;;;;;5112010;28;20035;-60
2020/12/01 04:38:09;;;;;;;33.75;12.20;;;27.40;68.40;;;;;;5110602;28;20027;-61
2020/12/01 04:40:39;;;;;;;35.30;9.85;;;27.00;69.20;;;;;;5112297;28;20521;-62
2020/12/01 04:43:30;;;;;;;25.00;9.63;;;26.70;70.00;;;;;;5108646;28;20039;-62
2020/12/01 04:45:57;;;;;;;29.55;9.82;;;26.70;69.30;;;;;;5110267;28;20421;-61
2020/12/01 04:48:30;;;;;;;33.65;15.40;;;27.20;68.70;;;;;;5110315;28;20019;-62
2020/12/01 04:51:11;;;;;;;38.90;15.93;;;27.20;68.40;;;;;;5093260;28;20019;-59
2020/12/01 04:53:56;;;;;;;29.30;10.23;;;27.20;67.90;;;;;;5106170;28;20396;-62
2020/12/01 04:56:53;;;;;;;34.45;9.82;;;27.00;68.80;;;;;;5110806;28;20111;-57
2020/12/01 04:59:45;;;;;;;37.33;13.40;;;27.00;68.80;;;;;;5109549;28;20123;-59
2020/12/01 05:02:47;;;;;;;33.22;9.00;;;27.00;68.70;;;;;;5113566;28;20353;-59
2020/12/01 05:06:35;;;;;;;33.95;11.13;;;27.10;68.80;;;;;;5114284;28;20028;-64
2020/12/01 05:08:41;;;;;;;37.22;12.70;;;27.20;68.90;;;;;;5103290;28;20027;-60
2020/12/01 05:11:39;;;;;;;34.85;10.35;;;27.20;68.40;;;;;;5114063;28;20027;-61
2020/12/01 05:14:16;;;;;;;28.67;11.32;;;27.30;68.60;;;;;;5113807;28;20492;-59
2020/12/01 05:16:43;;;;;;;29.95;11.77;;;27.20;68.10;;;;;;5113791;28;20020;-58
2020/12/01 05:19:43;;;;;;;38.92;14.10;;;27.10;68.80;;;;;;5113315;28;20061;-56
2020/12/01 05:22:14;;;;;;;32.13;13.25;;;27.00;69.10;;;;;;5113384;28;20057;-60
2020/12/01 05:24:50;;;;;;;32.40;12.75;;;27.10;68.90;;;;;;5112932;28;20353;-61
2020/12/01 05:27:34;;;;;;;35.95;14.30;;;27.00;69.10;;;;;;5113858;28;20020;-58
2020/12/01 05:30:21;;;;;;;32.22;12.80;;;27.20;69.00;;;;;;5113473;28;20024;-61
2020/12/01 05:33:01;;;;;;;35.13;12.60;;;27.20;69.20;;;;;;5113925;28;20012;-62
2020/12/01 05:35:34;;;;;;;39.50;13.23;;;27.10;69.00;;;;;;5113815;28;20031;-59
2020/12/01 05:38:17;;;;;;;39.75;12.55;;;27.10;69.20;;;;;;5113073;28;20460;-60
2020/12/01 05:40:54;;;;;;;38.20;13.30;;;27.20;69.30;;;;;;5113031;28;20384;-61
2020/12/01 05:43:39;;;;;;;26.88;11.80;;;27.10;69.30;;;;;;5113392;28;20023;-60
2020/12/01 05:46:27;;;;;;;32.38;11.07;;;27.10;69.50;;;;;;5113574;28;20012;-60
2020/12/01 05:48:57;;;;;;;30.58;12.43;;;27.20;69.50;;;;;;5095943;28;20058;-59
2020/12/01 05:51:38;;;;;;;30.55;11.68;;;27.10;69.50;;;;;;5112808;28;20069;-58
2020/12/01 05:54:09;;;;;;;37.17;12.20;;;27.10;69.50;;;;;;5112889;28;20445;-60
2020/12/01 05:56:49;;;;;;;34.42;13.00;;;27.20;69.60;;;;;;5112788;28;20020;-59
2020/12/01 05:59:19;;;;;;;34.45;11.02;;;27.20;69.60;;;;;;5112747;28;20094;-61
2020/12/01 06:01:51;;;;;;;33.95;10.65;;;27.20;69.80;;;;;;5112412;28;20068;-62
2020/12/01 06:04:18;;;;;;;;;;;27.10;69.40;;;;;;5113573;28;20020;-60
2020/12/01 06:06:58;;;;;;;34.95;12.20;;;27.00;70.00;;;;;;5103406;27;19915;-59
2020/12/01 06:09:40;;;;;;;40.47;13.35;;;27.00;69.90;;;;;;5108658;27;20031;-59
2020/12/01 06:12:43;;;;;;;34.88;11.55;;;26.80;71.10;;;;;;5108116;28;20030;-60
2020/12/01 06:15:18;;;;;;;34.65;11.30;;;26.80;70.80;;;;;;5108314;28;20020;-57
2020/12/01 06:18:11;;;;;;;35.95;12.25;;;26.70;70.90;;;;;;5108737;28;20163;-61
2020/12/01 06:20:41;;;;;;;25.92;11.43;;;26.50;71.70;;;;;;5106132;28;20545;-62
2020/12/01 06:23:26;;;;;;;45.13;12.32;;;26.70;71.60;;;;;;5110684;28;20023;-65
2020/12/01 06:26:30;;;;;;;31.15;12.02;;;26.70;71.30;;;;;;5107728;27;20489;-57
2020/12/01 06:29:04;;;;;;;43.63;13.13;;;26.70;71.20;;;;;;5108158;28;20034;-58
2020/12/01 06:31:49;;;;;;;40.47;12.45;;;26.80;71.20;;;;;;5104557;28;20038;-62
2020/12/01 06:34:37;;;;;;;36.60;12.23;;;26.80;71.20;;;;;;5109409;28;20031;-63
2020/12/01 06:37:33;;;;;;;30.45;12.40;;;26.80;71.10;;;;;;5090508;28;20034;-60
2020/12/01 06:40:00;;;;;;;46.38;14.25;;;26.80;71.20;;;;;;5108236;28;20054;-62
2020/12/01 06:42:55;;;;;;;38.85;13.13;;;26.50;71.90;;;;;;5106131;28;20111;-64
2020/12/01 06:45:33;;;;;;;34.17;12.50;;;26.60;72.00;;;;;;5107579;28;20024;-64
2020/12/01 06:48:13;;;;;;;41.15;13.80;;;26.20;73.80;;;;;;5106845;28;20512;-57
2020/12/01 06:50:48;;;;;;;39.60;12.77;;;26.40;72.80;;;;;;5106065;28;20129;-59
2020/12/01 06:53:31;;;;;;;51.05;13.55;;;26.20;73.40;;;;;;5109974;28;20039;-65
2020/12/01 06:56:07;;;;;;;37.40;15.50;;;26.10;73.30;;;;;;5106291;28;20073;-61
2020/12/01 06:58:34;;;;;;;35.47;12.93;;;26.00;74.60;;;;;;5108926;28;20042;-65
2020/12/01 07:01:10;;;;;;;36.97;13.15;;;26.20;73.40;;;;;;5112300;28;20026;-59
2020/12/01 07:03:40;;;;;;;36.70;13.07;;;26.20;73.30;;;;;;5093508;28;20101;-64
2020/12/01 07:06:21;;;;;;;33.28;13.40;;;26.30;73.20;;;;;;5111338;28;20203;-59
2020/12/01 07:08:49;;;;;;;34.83;13.32;;;26.30;73.00;;;;;;5112876;28;20477;-59
2020/12/01 07:11:29;;;;;;;38.10;14.23;;;26.10;73.40;;;;;;5112635;28;20034;-56
2020/12/01 07:14:04;;;;;;;35.58;15.18;;;26.10;73.40;;;;;;5111844;28;20071;-56
2020/12/01 07:16:43;;;;;;;42.67;14.20;;;26.00;74.20;;;;;;5112671;28;20024;-57
2020/12/01 07:19:23;;;;;;;42.35;14.85;;;25.80;75.00;;;;;;5112972;28;20066;-59
2020/12/01 07:22:08;;;;;;;33.97;12.18;;;25.90;74.60;;;;;;5112158;28;20080;-59
2020/12/01 07:24:54;;;;;;;48.70;15.98;;;25.90;74.30;;;;;;5112103;28;20047;-60
2020/12/01 07:27:35;;;;;;;38.58;13.15;;;25.70;75.30;;;;;;5112130;28;20111;-60
2020/12/01 07:30:07;;;;;;;47.70;14.00;;;25.90;74.90;;;;;;5112311;28;20016;-57
2020/12/01 07:33:02;;;;;;;29.60;12.98;;;25.60;75.70;;;;;;5112193;28;20118;-61
2020/12/01 07:35:38;;;;;;;40.35;13.77;;;26.00;74.60;;;;;;5112524;28;20358;-64
2020/12/01 07:38:23;;;;;;;35.75;13.45;;;26.20;74.10;;;;;;5112694;28;20032;-66
2020/12/01 07:40:54;;;;;;;39.63;13.63;;;26.30;73.60;;;;;;5112794;28;20024;-64
2020/12/01 07:43:22;;;;;;;33.80;12.60;;;26.40;74.30;;;;;;5094270;28;20381;-63
2020/12/01 07:46:01;;;;;;;29.60;12.57;;;26.40;73.80;;;;;;5094296;28;20088;-63
2020/12/01 07:48:29;;;;;;;40.03;14.07;;;26.40;74.30;;;;;;5112554;28;20115;-61
2020/12/01 07:51:07;;;;;;;46.08;14.38;;;26.40;75.10;;;;;;5112829;28;20469;-63
2020/12/01 07:53:42;;;;;;;43.30;14.27;;;26.40;75.90;;;;;;5112227;28;20539;-63
2020/12/01 07:56:15;;;;;;;38.88;14.27;;;26.40;77.20;;;;;;5112360;28;20024;-66
2020/12/01 07:59:01;;;;;;;48.20;13.85;;;26.40;77.30;;;;;;5112288;28;20156;-57
2020/12/01 08:01:29;;;;;;;37.80;13.07;;;26.40;79.00;;;;;;5100429;28;20050;-64
2020/12/01 08:04:10;;;;;;;41.25;14.07;;;26.40;79.80;;;;;;5097556;28;20452;-63
2020/12/01 08:06:38;;;;;;;43.55;15.00;;;26.40;78.70;;;;;;5116447;28;20098;-60
2020/12/01 08:09:21;;;;;;;43.63;13.43;;;26.40;80.30;;;;;;5115787;28;20024;-60
2020/12/01 08:11:49;;;;;;;52.45;12.93;;;26.40;79.50;;;;;;5115553;28;20030;-67
2020/12/01 08:14:17;;;;;;;41.30;14.57;;;26.40;80.60;;;;;;5115987;28;20130;-57
2020/12/01 08:16:58;;;;;;;34.60;14.43;;;26.30;80.20;;;;;;5115864;28;20012;-63
2020/12/01 08:19:27;;;;;;;44.22;13.18;;;26.20;81.00;;;;;;5115900;28;20024;-66
2020/12/01 08:21:56;;;;;;;34.65;13.57;;;26.30;82.20;;;;;;5115552;28;20024;-66
2020/12/01 08:24:26;;;;;;;46.78;15.05;;;26.30;81.70;;;;;;5114202;28;20406;-65
2020/12/01 08:27:17;;;;;;;32.65;12.48;;;26.20;81.90;;;;;;5115471;28;20024;-60
2020/12/01 08:29:46;;;;;;;25.30;12.02;;;26.20;81.50;;;;;;5115083;27;20026;-65
2020/12/01 08:32:24;;;;;;;33.08;11.77;;;26.20;81.20;;;;;;5116474;27;20489;-65
2020/12/01 08:35:03;;;;;;;30.27;12.35;;;26.20;80.40;;;;;;5116280;27;20020;-63
2020/12/01 08:38:14;;;;;;;39.38;13.82;;;26.20;82.00;;;;;;5096778;28;20021;-60
2020/12/01 08:41:14;;;;;;;44.77;15.13;;;26.20;81.00;;;;;;5114978;27;20032;-60
2020/12/01 08:44:10;;;;;;;36.75;13.02;;;26.20;81.90;;;;;;5114847;28;20024;-57
2020/12/01 08:46:44;;;;;;;34.85;12.25;;;26.20;80.80;;;;;;5107083;27;20023;-58
2020/12/01 08:49:58;;;;;;;37.05;13.00;;;26.20;81.00;;;;;;5110645;27;20362;-59
2020/12/01 08:52:03;;;;;;;44.03;13.80;;;26.10;81.10;;;;;;5093165;27;20050;-52
2020/12/01 08:54:36;;;;;;;43.40;13.40;;;26.10;81.20;;;;;;5108653;28;20050;-57
2020/12/01 08:57:09;;;;;;;36.22;14.18;;;26.10;81.00;;;;;;5108528;28;20081;-56
2020/12/01 08:59:46;;;;;;;39.22;13.98;;;26.00;80.70;;;;;;5107772;28;20118;-52
2020/12/01 09:02:17;;;;;;;36.10;13.88;;;26.00;80.80;;;;;;5109743;28;20027;-53
2020/12/01 09:04:45;;;;;;;33.25;14.10;;;26.00;81.60;;;;;;5109804;28;20023;-63
2020/12/01 09:07:19;;;;;;;34.10;13.23;;;26.00;81.10;;;;;;5088573;28;20050;-61
2020/12/01 09:09:49;;;;;;;39.65;14.32;;;26.00;80.90;;;;;;5088617;28;20443;-58
2020/12/01 09:12:25;;;;;;;35.65;13.20;;;26.00;80.80;;;;;;5107710;28;20035;-57
2020/12/01 09:23:21;;;;;;;36.72;13.75;;;25.80;81.30;;;;;;5110656;28;20035;-66
2020/12/01 09:25:50;;;;;;;36.78;13.48;;;25.80;81.70;;;;;;5109667;28;20043;-55
2020/12/01 09:28:21;;;;;;;39.42;12.82;;;25.80;82.00;;;;;;5108208;28;20030;-60
2020/12/01 09:30:50;;;;;;;31.75;13.23;;;25.80;82.30;;;;;;5111004;28;20031;-51
2020/12/01 09:33:23;;;;;;;32.88;13.10;;;25.80;82.50;;;;;;5110956;28;20032;-57
2020/12/01 09:35:51;;;;;;;40.72;13.02;;;25.70;82.60;;;;;;5110602;28;20036;-64
2020/12/01 09:38:19;;;;;;;32.80;13.38;;;25.70;82.40;;;;;;5106180;28;20127;-54
2020/12/01 09:40:49;;;;;;;44.20;13.95;;;25.70;82.30;;;;;;5108140;28;20470;-59
2020/12/01 09:45:46;;;;;;;30.33;12.77;;;25.70;82.40;;;;;;5109836;28;20020;-65
2020/12/01 09:48:24;;;;;;;39.35;13.48;;;25.60;82.10;;;;;;5107240;28;20110;-63
2020/12/01 09:50:53;;;;;;;33.75;12.57;;;25.60;82.00;;;;;;5107832;28;20031;-61
2020/12/01 09:56:32;;;;;;;30.13;11.40;;;25.60;82.00;;;;;;5109360;28;20048;-64
2020/12/01 10:31:50;;;;;;;27.02;11.77;;;25.50;81.10;;;;;;5109584;28;20011;-61
2020/12/01 10:36:25;;;;;;;33.38;12.05;;;25.50;81.20;;;;;;5112647;28;20476;-62
2020/12/01 10:38:53;;;;;;;26.15;12.10;;;25.50;81.00;;;;;;5111597;28;20040;-59
2020/12/01 10:41:28;;;;;;;30.42;11.45;;;25.50;81.00;;;;;;5112269;28;20413;-61
2020/12/01 10:43:55;;;;;;;30.30;12.15;;;25.50;81.00;;;;;;5112226;28;20399;-60
2020/12/01 10:46:23;;;;;;;30.48;11.32;;;25.40;80.90;;;;;;5112831;28;20040;-58
2020/12/01 10:48:50;;;;;;;27.00;11.00;;;25.40;80.80;;;;;;5112222;28;20533;-61
2020/12/01 10:51:19;;;;;;;23.42;10.43;;;25.40;80.90;;;;;;5080119;28;20426;-53
2020/12/01 10:53:46;;;;;;;32.85;12.30;;;25.40;80.80;;;;;;5111644;28;20382;-60
2020/12/01 10:56:15;;;;;;;26.70;10.52;;;25.40;80.90;;;;;;5093655;28;20358;-61
2020/12/01 10:58:43;;;;;;;26.40;10.63;;;25.40;80.70;;;;;;5093478;28;20039;-62
2020/12/01 11:01:11;;;;;;;23.75;10.90;;;25.30;80.50;;;;;;5111940;28;20030;-61
2020/12/01 11:03:38;;;;;;;25.23;10.32;;;25.30;80.70;;;;;;5112194;28;20029;-57
2020/12/01 11:06:05;;;;;;;27.08;10.30;;;25.30;80.60;;;;;;5112257;28;20023;-59
2020/12/01 11:08:33;;;;;;;30.13;11.65;;;25.30;81.10;;;;;;5112584;28;20043;-58
2020/12/01 11:11:00;;;;;;;23.70;10.43;;;25.30;81.10;;;;;;5112187;28;20027;-51
2020/12/01 11:13:27;;;;;;;29.00;11.27;;;25.20;81.00;;;;;;5112473;28;20028;-55
2020/12/01 11:15:55;;;;;;;26.25;10.98;;;25.20;81.20;;;;;;5111945;28;20023;-55
2020/12/01 11:18:23;;;;;;;29.65;11.68;;;25.20;81.30;;;;;;5111529;28;20067;-51
2020/12/01 11:20:50;;;;;;;24.35;11.48;;;25.20;81.20;;;;;;5111673;28;20478;-58
2020/12/01 11:23:17;;;;;;;27.92;11.10;;;25.20;81.30;;;;;;5112198;28;20012;-55
2020/12/01 11:25:45;;;;;;;26.48;10.57;;;25.20;81.40;;;;;;5111963;28;20035;-54
2020/12/01 11:28:12;;;;;;;28.80;11.18;;;25.20;81.40;;;;;;5112468;28;20443;-56
2020/12/01 11:30:39;;;;;;;27.05;10.65;;;25.20;81.50;;;;;;5112166;28;20513;-51
2020/12/01 11:33:07;;;;;;;22.52;10.38;;;25.20;81.50;;;;;;5112316;28;20038;-60
2020/12/01 11:35:34;;;;;;;26.75;11.20;;;25.20;81.20;;;;;;5115455;28;20032;-55
2020/12/01 11:38:01;;;;;;;25.52;11.43;;;25.20;81.60;;;;;;5116000;28;20028;-57
2020/12/01 11:40:29;;;;;;;30.83;10.60;;;25.20;81.40;;;;;;5116250;28;20058;-55
2020/12/01 11:42:56;;;;;;;23.98;9.85;;;25.20;81.50;;;;;;5116065;28;20020;-51
2020/12/01 11:45:24;;;;;;;26.38;11.10;;;25.20;81.20;;;;;;5116374;28;20373;-54
2020/12/01 11:47:51;;;;;;;22.05;10.38;;;25.20;81.50;;;;;;5097429;28;20377;-51
2020/12/01 11:50:19;;;;;;;24.83;10.27;;;25.20;81.60;;;;;;5115843;28;20026;-53
2020/12/01 11:52:46;;;;;;;22.33;10.07;;;25.20;81.60;;;;;;5116136;28;20015;-55
2020/12/01 11:55:14;;;;;;;30.83;10.50;;;25.20;81.60;;;;;;5115962;28;20125;-56
2020/12/01 11:57:41;;;;;;;23.42;9.75;;;25.20;81.80;;;;;;5115467;28;20538;-50
2020/12/01 12:00:16;;;;;;;22.60;11.23;;;25.20;81.60;;;;;;5096963;28;20107;-56
2020/12/01 12:02:43;;;;;;;23.98;11.10;;;25.20;81.70;;;;;;5114612;28;20065;-57
2020/12/01 12:05:10;;;;;;;20.65;8.75;;;25.20;81.80;;;;;;5097273;28;20023;-55
2020/12/01 12:07:38;;;;;;;20.17;9.75;;;25.20;81.60;;;;;;5115547;28;20103;-55
2020/12/01 12:10:05;;;;;;;24.75;10.30;;;25.20;81.50;;;;;;5115526;28;20035;-51
2020/12/01 12:12:33;;;;;;;22.05;9.43;;;25.20;81.20;;;;;;5113950;28;20466;-55
2020/12/01 12:15:00;;;;;;;16.55;9.30;;;25.20;81.10;;;;;;5115619;28;20023;-53
2020/12/01 12:17:28;;;;;;;29.55;10.38;;;25.20;81.10;;;;;;5115505;28;20051;-55
2020/12/01 12:19:55;;;;;;;21.45;9.20;;;25.20;81.00;;;;;;5115593;28;20126;-51
2020/12/01 12:22:22;;;;;;;20.17;9.43;;;25.20;80.70;;;;;;5115618;28;20023;-50
2020/12/01 12:24:50;;;;;;;23.70;9.23;;;25.20;80.80;;;;;;5100546;27;20043;-57
2020/12/01 12:27:17;;;;;;;22.77;8.38;;;25.20;81.40;;;;;;5112618;28;20038;-60
2020/12/01 12:29:48;;;;;;;22.95;9.70;;;25.20;82.50;;;;;;5111282;27;20497;-54
2020/12/01 12:32:16;;;;;;;22.33;9.13;;;25.20;81.50;;;;;;5110632;28;20173;-60
2020/12/01 12:34:43;;;;;;;19.83;8.50;;;25.20;81.30;;;;;;5112139;28;20027;-47
2020/12/01 12:37:10;;;;;;;19.63;8.48;;;25.20;81.40;;;;;;5112054;28;20110;-50
2020/12/01 12:39:38;;;;;;;20.83;9.45;;;25.30;81.30;;;;;;5108111;28;20610;-52
2020/12/01 12:42:05;;;;;;;19.45;8.77;;;25.30;81.20;;;;;;5115442;27;20024;-62
2020/12/01 12:44:33;;;;;;;17.27;8.48;;;25.30;81.30;;;;;;5111694;28;20034;-52
2020/12/01 12:47:00;;;;;;;19.13;9.23;;;25.30;81.30;;;;;;5093225;28;20526;-49
2020/12/01 12:49:28;;;;;;;21.05;8.93;;;25.30;81.30;;;;;;5089412;28;20024;-51
2020/12/01 12:51:55;;;;;;;24.70;10.00;;;25.30;81.50;;;;;;5112112;28;20672;-49
2020/12/01 12:54:23;;;;;;;22.13;8.30;;;25.30;81.30;;;;;;5112335;28;20037;-58
2020/12/01 12:56:50;;;;;;;23.85;9.23;;;25.30;81.10;;;;;;5114695;28;20032;-55
2020/12/01 12:59:17;;;;;;;17.17;7.93;;;25.30;81.00;;;;;;5113281;28;20027;-53
2020/12/01 13:01:45;;;;;;;17.48;7.97;;;25.30;80.90;;;;;;5105951;28;20019;-59
2020/12/01 13:04:12;;;;;;;20.13;8.32;;;25.30;80.90;;;;;;5110864;27;20049;-60
2020/12/01 13:06:40;;;;;;;19.80;8.75;;;25.30;81.00;;;;;;5110147;28;20046;-53
2020/12/01 13:09:07;;;;;;;16.63;7.25;;;25.30;80.90;;;;;;5113118;27;20038;-59
2020/12/01 13:11:35;;;;;;;18.67;8.20;;;25.30;80.90;;;;;;5111120;28;20027;-54
2020/12/01 13:14:02;;;;;;;17.95;7.85;;;25.30;80.90;;;;;;5111596;28;20527;-59
2020/12/01 13:16:30;;;;;;;22.17;8.27;;;25.30;80.90;;;;;;5108023;28;20051;-54
2020/12/01 13:18:57;;;;;;;19.92;7.97;;;25.30;80.90;;;;;;5111183;27;20066;-55
2020/12/01 13:21:24;;;;;;;20.08;8.32;;;25.20;80.90;;;;;;5110148;28;20034;-55
2020/12/01 13:23:52;;;;;;;14.32;7.78;;;25.20;80.90;;;;;;5110900;28;20079;-56
2020/12/01 13:26:20;;;;;;;17.92;7.82;;;25.20;80.90;;;;;;5107855;28;20096;-59
2020/12/01 13:28:48;;;;;;;19.00;8.40;;;25.20;80.90;;;;;;5110524;28;20035;-55
2020/12/01 13:31:15;;;;;;;17.05;7.78;;;25.20;80.80;;;;;;5111107;28;20149;-59
2020/12/01 13:33:44;;;;;;;17.38;8.23;;;25.20;80.90;;;;;;5111394;28;20043;-54
2020/12/01 13:36:12;;;;;;;18.95;7.38;;;25.20;81.00;;;;;;5107797;28;20034;-60
2020/12/01 13:38:43;;;;;;;19.13;7.43;;;25.20;80.90;;;;;;5109597;28;20055;-57
2020/12/01 13:41:11;;;;;;;14.05;7.03;;;25.20;80.90;;;;;;5092657;28;20107;-58
2020/12/01 13:43:38;;;;;;;16.00;7.05;;;25.20;80.80;;;;;;5110879;28;20030;-59
2020/12/01 13:46:06;;;;;;;14.15;6.25;;;25.20;80.80;;;;;;5106521;28;20462;-59
2020/12/01 13:48:33;;;;;;;14.27;7.20;;;25.10;80.80;;;;;;5111136;28;20031;-55